createdAt,value
2022-10-24T00:01:15.747Z,15.80
2022-10-24T00:03:43.027Z,15.80
2022-10-24T00:06:11.857Z,15.80
2022-10-24T00:08:40.450Z,15.70
2022-10-24T00:11:16.582Z,15.70
2022-10-24T00:13:44.195Z,15.60
2022-10-24T00:16:11.601Z,15.60
2022-10-24T00:18:38.914Z,15.60
2022-10-24T00:21:06.497Z,15.60
2022-10-24T00:23:33.508Z,15.60
2022-10-24T00:26:02.059Z,15.60
2022-10-24T00:28:30.157Z,15.60
2022-10-24T00:30:57.408Z,15.50
2022-10-24T00:33:24.483Z,15.50
2022-10-24T00:35:51.311Z,15.40
2022-10-24T00:38:18.187Z,15.40
2022-10-24T00:40:45.495Z,15.40
2022-10-24T00:43:22.161Z,15.40
2022-10-24T00:45:57.805Z,15.40
2022-10-24T00:48:27.119Z,15.30
2022-10-24T00:50:59.588Z,15.30
2022-10-24T00:53:29.106Z,15.30
2022-10-24T00:55:59.360Z,15.30
2022-10-24T00:58:29.537Z,15.30
2022-10-24T01:00:57.056Z,15.30
2022-10-24T01:03:24.375Z,15.20
2022-10-24T01:06:06.575Z,15.10
2022-10-24T01:08:45.969Z,15.10
2022-10-24T01:11:43.610Z,15.00
2022-10-24T01:14:20.863Z,15.00
2022-10-24T01:16:50.222Z,15.00
2022-10-24T01:19:48.166Z,14.90
2022-10-24T01:22:24.606Z,14.90
2022-10-24T01:25:06.333Z,14.90
2022-10-24T01:28:01.966Z,14.80
2022-10-24T01:30:30.882Z,14.80
2022-10-24T01:33:08.980Z,14.80
2022-10-24T01:35:55.005Z,14.80
2022-10-24T01:38:32.861Z,14.70
2022-10-24T01:41:09.321Z,14.60
2022-10-24T01:43:39.716Z,14.60
2022-10-24T01:46:13.717Z,14.60
2022-10-24T01:48:45.600Z,14.60
2022-10-24T01:51:16.118Z,14.60
2022-10-24T01:53:45.248Z,14.60
2022-10-24T01:56:12.166Z,14.60
2022-10-24T01:58:38.951Z,14.60
2022-10-24T02:01:10.390Z,14.60
2022-10-24T02:03:51.911Z,14.60
2022-10-24T02:06:24.657Z,14.60
2022-10-24T02:08:59.646Z,14.70
2022-10-24T02:11:26.613Z,14.70
2022-10-24T02:14:17.004Z,14.70
2022-10-24T02:16:44.868Z,14.60
2022-10-24T02:19:13.851Z,14.60
2022-10-24T02:22:02.240Z,14.60
2022-10-24T02:24:37.408Z,14.60
2022-10-24T02:27:14.420Z,14.50
2022-10-24T02:29:48.810Z,14.50
2022-10-24T02:32:29.129Z,14.50
2022-10-24T02:34:58.068Z,14.40
2022-10-24T02:37:26.802Z,14.40
2022-10-24T02:39:56.126Z,14.30
2022-10-24T02:42:25.509Z,14.30
2022-10-24T02:44:53.069Z,14.20
2022-10-24T02:47:22.558Z,14.20
2022-10-24T02:49:49.502Z,14.20
2022-10-24T02:52:16.582Z,14.20
2022-10-24T02:54:43.499Z,14.10
2022-10-24T02:57:10.523Z,14.10
2022-10-24T02:59:37.329Z,14.10
2022-10-24T03:02:04.145Z,14.10
2022-10-24T03:04:30.963Z,14.10
2022-10-24T03:06:57.835Z,14.10
2022-10-24T03:09:24.644Z,14.10
2022-10-24T03:11:51.553Z,14.00
2022-10-24T03:14:18.402Z,14.10
2022-10-24T03:16:45.211Z,14.00
2022-10-24T03:19:12.090Z,14.10
2022-10-24T03:21:40.173Z,14.10
2022-10-24T03:26:35.049Z,14.10
2022-10-24T03:29:01.944Z,14.10
2022-10-24T03:31:28.826Z,14.20
2022-10-24T03:33:55.607Z,14.20
2022-10-24T03:36:22.496Z,14.20
2022-10-24T03:38:49.359Z,14.30
2022-10-24T03:41:16.514Z,14.30
2022-10-24T03:43:43.332Z,14.30
2022-10-24T03:46:10.228Z,14.30
2022-10-24T03:48:37.054Z,14.30
2022-10-24T03:51:04.086Z,14.30
2022-10-24T03:53:30.932Z,14.30
2022-10-24T03:55:58.123Z,14.40
2022-10-24T03:58:25.051Z,14.40
2022-10-24T04:00:52.043Z,14.50
2022-10-24T04:03:18.919Z,14.50
2022-10-24T04:05:45.786Z,14.60
2022-10-24T04:08:12.692Z,14.60
2022-10-24T04:10:39.654Z,14.60
2022-10-24T04:13:06.567Z,14.60
2022-10-24T04:15:33.551Z,14.60
2022-10-24T04:18:00.379Z,14.60
2022-10-24T04:20:27.230Z,14.60
2022-10-24T04:22:54.136Z,14.60
2022-10-24T04:25:21.028Z,14.60
2022-10-24T04:27:47.946Z,14.70
2022-10-24T04:30:16.818Z,14.70
2022-10-24T04:32:44.469Z,14.70
2022-10-24T04:35:11.639Z,14.70
2022-10-24T04:37:38.499Z,14.70
2022-10-24T04:40:06.067Z,14.70
2022-10-24T04:42:32.969Z,14.70
2022-10-24T04:44:59.751Z,14.70
2022-10-24T04:47:26.609Z,14.70
2022-10-24T04:49:53.408Z,14.70
2022-10-24T04:52:20.219Z,14.70
2022-10-24T04:54:47.002Z,14.70
2022-10-24T04:57:13.878Z,14.70
2022-10-24T04:59:40.706Z,14.70
2022-10-24T05:02:07.818Z,14.70
2022-10-24T05:04:34.774Z,14.70
2022-10-24T05:07:01.737Z,14.70
2022-10-24T05:09:28.564Z,14.80
2022-10-24T05:11:57.100Z,14.80
2022-10-24T05:14:24.861Z,14.80
2022-10-24T05:16:51.783Z,14.80
2022-10-24T05:19:19.750Z,14.80
2022-10-24T05:21:46.710Z,14.80
2022-10-24T05:24:13.822Z,14.80
2022-10-24T05:26:40.709Z,14.90
2022-10-24T05:31:39.272Z,14.90
2022-10-24T05:34:06.144Z,14.90
2022-10-24T05:36:32.974Z,14.90
2022-10-24T05:38:59.760Z,14.90
2022-10-24T05:41:26.618Z,14.80
2022-10-24T05:43:53.433Z,14.80
2022-10-24T05:46:20.365Z,14.80
2022-10-24T05:48:47.253Z,14.70
2022-10-24T05:51:14.072Z,14.70
2022-10-24T05:53:40.907Z,14.70
2022-10-24T05:56:08.411Z,14.70
2022-10-24T05:58:35.258Z,14.70
2022-10-24T06:01:02.185Z,14.70
2022-10-24T06:03:29.098Z,14.60
2022-10-24T06:05:55.894Z,14.60
2022-10-24T06:08:22.810Z,14.60
2022-10-24T06:10:51.368Z,14.60
2022-10-24T06:13:18.606Z,14.50
2022-10-24T06:15:45.552Z,14.50
2022-10-24T06:18:12.755Z,14.60
2022-10-24T06:20:39.586Z,14.60
2022-10-24T06:23:06.421Z,14.60
2022-10-24T06:25:33.281Z,14.70
2022-10-24T06:28:00.478Z,14.60
2022-10-24T06:30:27.938Z,14.70
2022-10-24T06:32:54.846Z,14.80
2022-10-24T06:35:21.711Z,14.80
2022-10-24T06:37:48.704Z,14.80
2022-10-24T06:40:16.963Z,14.80
2022-10-24T06:42:44.517Z,14.80
2022-10-24T06:45:11.836Z,14.80
2022-10-24T06:47:38.986Z,14.80
2022-10-24T06:50:07.073Z,14.80
2022-10-24T06:52:33.876Z,14.80
2022-10-24T06:55:00.736Z,14.90
2022-10-24T06:57:27.532Z,14.90
2022-10-24T06:59:54.374Z,15.00
2022-10-24T07:02:21.421Z,15.00
2022-10-24T07:04:48.359Z,15.10
2022-10-24T07:07:21.106Z,15.20
2022-10-24T07:09:56.521Z,15.20
2022-10-24T07:12:24.953Z,15.20
2022-10-24T07:14:52.386Z,15.30
2022-10-24T07:17:20.444Z,15.30
2022-10-24T07:19:53.153Z,15.30
2022-10-24T07:22:20.232Z,15.40
2022-10-24T07:24:52.172Z,15.40
2022-10-24T07:27:19.024Z,15.40
2022-10-24T07:29:46.345Z,15.40
2022-10-24T07:32:13.188Z,15.40
2022-10-24T07:34:41.538Z,15.40
2022-10-24T07:37:08.444Z,15.50
2022-10-24T07:39:35.332Z,15.50
2022-10-24T07:42:02.190Z,15.50
2022-10-24T07:44:29.029Z,15.50
2022-10-24T07:46:55.949Z,15.60
2022-10-24T07:49:23.116Z,15.60
2022-10-24T07:51:49.980Z,15.60
2022-10-24T07:54:16.904Z,15.70
2022-10-24T07:56:43.865Z,15.70
2022-10-24T07:59:29.876Z,15.70
2022-10-24T08:01:57.568Z,15.70
2022-10-24T08:04:24.483Z,15.70
2022-10-24T08:06:51.297Z,15.70
2022-10-24T08:09:18.308Z,15.70
2022-10-24T08:11:45.260Z,15.70
2022-10-24T08:14:12.095Z,15.70
2022-10-24T08:16:42.103Z,15.70
2022-10-24T08:19:08.946Z,15.80
2022-10-24T08:21:36.328Z,15.80
2022-10-24T08:24:03.430Z,15.80
2022-10-24T08:26:30.243Z,15.90
2022-10-24T08:28:57.781Z,15.90
2022-10-24T08:31:26.386Z,15.90
2022-10-24T08:33:55.181Z,15.90
2022-10-24T08:36:25.578Z,15.90
2022-10-24T08:38:52.725Z,15.90
2022-10-24T08:41:24.971Z,15.90
2022-10-24T08:43:54.208Z,15.80
2022-10-24T08:46:44.352Z,15.80
2022-10-24T08:49:27.716Z,15.70
2022-10-24T08:52:06.417Z,15.80
2022-10-24T08:54:39.845Z,15.80
2022-10-24T08:57:10.147Z,15.80
2022-10-24T08:59:37.698Z,15.90
2022-10-24T09:02:20.799Z,15.90
2022-10-24T09:04:54.420Z,15.90
2022-10-24T09:10:16.857Z,16.00
2022-10-24T09:12:43.803Z,16.00
2022-10-24T09:15:29.548Z,16.00
2022-10-24T09:17:57.592Z,16.00
2022-10-24T09:20:26.557Z,16.10
2022-10-24T09:22:57.047Z,16.00
2022-10-24T09:25:30.019Z,16.10
2022-10-24T09:27:58.967Z,16.10
2022-10-24T09:30:30.110Z,16.20
2022-10-24T09:33:07.820Z,16.20
2022-10-24T09:35:35.536Z,16.30
2022-10-24T09:38:26.596Z,16.40
2022-10-24T09:40:59.187Z,16.50
2022-10-24T09:43:56.106Z,16.50
2022-10-24T09:46:45.166Z,16.50
2022-10-24T09:49:19.943Z,16.60
2022-10-24T09:51:59.827Z,16.50
2022-10-24T09:54:30.145Z,16.40
2022-10-24T09:56:57.052Z,16.40
2022-10-24T09:59:26.832Z,16.40
2022-10-24T10:01:53.976Z,16.30
2022-10-24T10:04:20.993Z,16.30
2022-10-24T10:06:50.219Z,16.20
2022-10-24T10:09:25.988Z,16.30
2022-10-24T10:12:02.577Z,16.30
2022-10-24T10:14:30.283Z,16.40
2022-10-24T10:17:06.378Z,16.40
2022-10-24T10:19:37.680Z,16.40
2022-10-24T10:22:31.933Z,16.50
2022-10-24T10:25:00.485Z,16.50
2022-10-24T10:27:42.626Z,16.70
2022-10-24T10:30:12.593Z,16.70
2022-10-24T10:33:10.290Z,16.80
2022-10-24T10:35:49.160Z,16.80
2022-10-24T10:38:27.885Z,16.90
2022-10-24T10:41:15.052Z,17.00
2022-10-24T10:43:48.343Z,17.00
2022-10-24T10:46:33.382Z,17.00
2022-10-24T10:49:03.264Z,17.00
2022-10-24T10:51:54.190Z,17.00
2022-10-24T10:54:32.960Z,17.00
2022-10-24T10:57:26.475Z,17.00
2022-10-24T11:00:07.764Z,17.00
2022-10-24T11:02:55.985Z,17.00
2022-10-24T11:05:32.654Z,17.00
2022-10-24T11:08:39.793Z,17.10
2022-10-24T11:11:23.997Z,17.00
2022-10-24T11:13:54.449Z,17.00
2022-10-24T11:16:26.986Z,17.00
2022-10-24T11:19:01.957Z,17.00
2022-10-24T11:21:32.754Z,17.10
2022-10-24T11:24:05.011Z,17.10
2022-10-24T11:27:01.827Z,17.10
2022-10-24T11:29:40.176Z,17.10
2022-10-24T11:32:19.301Z,17.10
2022-10-24T11:34:58.443Z,17.10
2022-10-24T11:37:36.594Z,17.20
2022-10-24T11:40:17.741Z,17.20
2022-10-24T11:42:44.800Z,17.20
2022-10-24T11:45:15.553Z,17.20
2022-10-24T11:47:50.292Z,17.20
2022-10-24T11:50:28.877Z,17.20
2022-10-24T11:53:22.612Z,17.20
2022-10-24T11:55:59.803Z,17.20
2022-10-24T11:58:29.422Z,17.10
2022-10-24T12:01:11.825Z,17.20
2022-10-24T12:04:01.069Z,17.20
2022-10-24T12:06:46.424Z,17.20
2022-10-24T12:09:33.612Z,17.20
2022-10-24T12:12:39.064Z,17.20
2022-10-24T12:15:25.212Z,17.10
2022-10-24T12:18:13.428Z,17.10
2022-10-24T12:20:41.535Z,17.10
2022-10-24T12:23:20.751Z,17.20
2022-10-24T12:25:48.902Z,17.20
2022-10-24T12:28:23.155Z,17.20
2022-10-24T12:31:16.153Z,17.20
2022-10-24T12:33:44.173Z,17.30
2022-10-24T12:36:11.593Z,17.30
2022-10-24T12:38:38.810Z,17.30
2022-10-24T12:41:15.895Z,17.30
2022-10-24T12:43:44.669Z,17.40
2022-10-24T12:46:23.000Z,17.50
2022-10-24T12:48:59.576Z,17.50
2022-10-24T12:51:38.446Z,17.50
2022-10-24T12:54:13.903Z,17.50
2022-10-24T12:56:49.605Z,17.50
2022-10-24T12:59:35.050Z,17.50
2022-10-24T13:02:17.900Z,17.60
2022-10-24T13:05:18.989Z,17.60
2022-10-24T13:08:04.428Z,17.60
2022-10-24T13:10:44.691Z,17.50
2022-10-24T13:13:26.538Z,17.40
2022-10-24T13:16:02.502Z,17.40
2022-10-24T13:18:58.386Z,17.50
2022-10-24T13:24:12.428Z,17.50
2022-10-24T13:27:12.844Z,17.50
2022-10-24T13:29:40.026Z,17.50
2022-10-24T13:32:06.778Z,17.50
2022-10-24T13:34:54.755Z,17.50
2022-10-24T13:37:32.501Z,17.60
2022-10-24T13:40:17.235Z,17.70
2022-10-24T13:42:52.081Z,17.80
2022-10-24T13:45:33.854Z,17.90
2022-10-24T13:48:16.553Z,18.10
2022-10-24T13:51:12.467Z,18.20
2022-10-24T13:53:47.799Z,18.50
2022-10-24T13:56:15.534Z,18.60
2022-10-24T13:58:44.899Z,18.60
2022-10-24T14:01:27.635Z,18.60
2022-10-24T14:03:56.170Z,18.60
2022-10-24T14:06:25.983Z,18.70
2022-10-24T14:09:05.555Z,18.80
2022-10-24T14:11:33.715Z,18.80
2022-10-24T14:14:06.505Z,18.70
2022-10-24T14:16:35.465Z,18.60
2022-10-24T14:19:29.774Z,18.50
2022-10-24T14:21:58.613Z,18.30
2022-10-24T14:24:26.097Z,18.30
2022-10-24T14:26:56.843Z,18.20
2022-10-24T14:29:25.251Z,18.20
2022-10-24T14:31:58.131Z,18.10
2022-10-24T14:34:25.834Z,18.10
2022-10-24T14:36:53.768Z,18.00
2022-10-24T14:39:24.074Z,17.90
2022-10-24T14:41:52.502Z,17.90
2022-10-24T14:44:21.638Z,17.90
2022-10-24T14:47:06.084Z,17.90
2022-10-24T14:49:36.815Z,17.80
2022-10-24T14:52:12.722Z,17.80
2022-10-24T14:54:43.294Z,17.80
2022-10-24T14:57:21.701Z,17.80
2022-10-24T14:59:51.511Z,17.80
2022-10-24T15:02:31.993Z,17.90
2022-10-24T15:05:19.905Z,17.90
2022-10-24T15:08:21.761Z,17.90
2022-10-24T15:10:49.790Z,18.00
2022-10-24T15:13:21.610Z,17.90
2022-10-24T15:15:57.927Z,17.80
2022-10-24T15:18:43.863Z,17.70
2022-10-24T15:21:16.764Z,17.70
2022-10-24T15:23:54.800Z,17.60
2022-10-24T15:26:27.454Z,17.60
2022-10-24T15:29:07.674Z,17.60
2022-10-24T15:31:39.387Z,17.60
2022-10-24T15:34:08.921Z,17.60
2022-10-24T15:36:39.589Z,17.60
2022-10-24T15:39:11.290Z,17.60
2022-10-24T15:41:39.418Z,17.50
2022-10-24T15:44:17.167Z,17.40
2022-10-24T15:46:48.300Z,17.40
2022-10-24T15:49:15.314Z,17.40
2022-10-24T15:51:48.969Z,17.30
2022-10-24T15:54:19.899Z,17.30
2022-10-24T15:56:47.129Z,17.30
2022-10-24T15:59:14.348Z,17.20
2022-10-24T16:01:47.285Z,17.20
2022-10-24T16:04:15.145Z,17.10
2022-10-24T16:06:42.208Z,17.10
2022-10-24T16:09:16.110Z,17.00
2022-10-24T16:11:42.939Z,17.00
2022-10-24T16:14:15.327Z,16.90
2022-10-24T16:16:42.258Z,16.90
2022-10-24T16:19:12.083Z,16.80
2022-10-24T16:21:41.276Z,16.80
2022-10-24T16:24:10.001Z,16.70
2022-10-24T16:26:37.606Z,16.60
2022-10-24T16:29:05.716Z,16.60
2022-10-24T16:31:33.392Z,16.60
2022-10-24T16:34:00.292Z,16.50
2022-10-24T16:36:27.319Z,16.50
2022-10-24T16:38:54.318Z,16.50
2022-10-24T16:41:24.083Z,16.40
2022-10-24T16:43:53.461Z,16.40
2022-10-24T16:46:21.444Z,16.30
2022-10-24T16:48:49.122Z,16.30
2022-10-24T16:51:24.886Z,16.30
2022-10-24T16:53:51.712Z,16.30
2022-10-24T16:56:18.695Z,16.20
2022-10-24T16:58:45.618Z,16.20
2022-10-24T17:01:15.395Z,16.20
2022-10-24T17:03:43.466Z,16.20
2022-10-24T17:06:11.341Z,16.10
2022-10-24T17:08:38.626Z,16.10
2022-10-24T17:11:20.260Z,16.10
2022-10-24T17:13:52.512Z,16.00
2022-10-24T17:16:20.864Z,16.00
2022-10-24T17:19:04.670Z,16.00
2022-10-24T17:21:33.342Z,15.90
2022-10-24T17:24:00.499Z,15.90
2022-10-24T17:26:28.023Z,15.90
2022-10-24T17:28:54.936Z,15.90
2022-10-24T17:31:21.903Z,15.90
2022-10-24T17:33:48.937Z,15.90
2022-10-24T17:36:28.611Z,15.80
2022-10-24T17:39:05.226Z,15.80
2022-10-24T17:41:39.339Z,15.80
2022-10-24T17:44:06.922Z,15.80
2022-10-24T17:46:34.016Z,15.80
2022-10-24T17:49:00.898Z,15.80
2022-10-24T17:51:28.132Z,15.80
2022-10-24T17:53:55.020Z,15.70
2022-10-24T17:56:24.812Z,15.70
2022-10-24T17:58:52.730Z,15.70
2022-10-24T18:01:20.685Z,15.70
2022-10-24T18:03:47.586Z,15.70
2022-10-24T18:06:15.221Z,15.70
2022-10-24T18:08:42.231Z,15.70
2022-10-24T18:11:09.458Z,15.70
2022-10-24T18:13:40.435Z,15.60
2022-10-24T18:16:09.539Z,15.60
2022-10-24T18:18:36.508Z,15.60
2022-10-24T18:21:11.887Z,15.60
2022-10-24T18:23:38.820Z,15.50
2022-10-24T18:26:10.474Z,15.50
2022-10-24T18:28:39.277Z,15.50
2022-10-24T18:31:11.494Z,15.50
2022-10-24T18:33:38.998Z,15.50
2022-10-24T18:36:17.826Z,15.50
2022-10-24T18:38:45.234Z,15.50
2022-10-24T18:41:31.175Z,15.50
2022-10-24T18:44:01.025Z,15.50
2022-10-24T18:46:28.614Z,15.50
2022-10-24T18:48:55.851Z,15.50
2022-10-24T18:51:57.643Z,15.50
2022-10-24T18:54:24.501Z,15.50
2022-10-24T18:56:51.588Z,15.40
2022-10-24T18:59:21.850Z,15.40
2022-10-24T19:02:09.663Z,15.30
2022-10-24T19:04:40.508Z,15.30
2022-10-24T19:07:09.843Z,15.30
2022-10-24T19:09:37.200Z,15.30
2022-10-24T19:12:04.360Z,15.30
2022-10-24T19:14:31.378Z,15.30
2022-10-24T19:16:59.230Z,15.30
2022-10-24T19:19:29.009Z,15.30
2022-10-24T19:21:56.625Z,15.30
2022-10-24T19:24:23.545Z,15.30
2022-10-24T19:26:50.927Z,15.30
2022-10-24T19:29:17.974Z,15.30
2022-10-24T19:31:45.957Z,15.30
2022-10-24T19:34:12.881Z,15.30
2022-10-24T19:36:39.739Z,15.30
2022-10-24T19:39:07.211Z,15.30
2022-10-24T19:41:34.139Z,15.30
2022-10-24T19:44:00.971Z,15.30
2022-10-24T19:46:27.883Z,15.30
2022-10-24T19:48:55.311Z,15.30
2022-10-24T19:51:23.273Z,15.20
2022-10-24T19:53:52.187Z,15.20
2022-10-24T19:56:24.117Z,15.20
2022-10-24T19:58:53.209Z,15.20
2022-10-24T20:01:22.964Z,15.20
2022-10-24T20:03:50.787Z,15.30
2022-10-24T20:06:18.804Z,15.30
2022-10-24T20:08:46.888Z,15.20
2022-10-24T20:11:15.694Z,15.30
2022-10-24T20:13:43.698Z,15.30
2022-10-24T20:16:11.568Z,15.20
2022-10-24T20:21:10.973Z,15.20
2022-10-24T20:23:40.332Z,15.20
2022-10-24T20:26:10.182Z,15.20
2022-10-24T20:28:43.327Z,15.20
2022-10-24T20:31:23.098Z,15.20
2022-10-24T20:33:50.527Z,15.20
2022-10-24T20:36:17.992Z,15.20
2022-10-24T20:38:45.307Z,15.10
2022-10-24T20:41:12.239Z,15.10
2022-10-24T20:43:39.112Z,15.10
2022-10-24T20:46:06.843Z,15.00
2022-10-24T20:48:34.657Z,15.00
2022-10-24T20:51:12.701Z,15.00
2022-10-24T20:53:40.872Z,14.90
2022-10-24T20:56:10.476Z,14.90
2022-10-24T20:58:38.886Z,14.90
2022-10-24T21:01:14.673Z,14.90
2022-10-24T21:03:42.266Z,14.90
2022-10-24T21:06:23.622Z,14.90
2022-10-24T21:08:52.252Z,14.80
2022-10-24T21:11:26.183Z,14.80
2022-10-24T21:13:57.722Z,14.80
2022-10-24T21:16:25.204Z,14.80
2022-10-24T21:18:52.393Z,14.70
2022-10-24T21:21:20.210Z,14.70
2022-10-24T21:23:51.074Z,14.70
2022-10-24T21:26:18.163Z,14.70
2022-10-24T21:28:44.980Z,14.70
2022-10-24T21:31:17.341Z,14.70
2022-10-24T21:33:44.779Z,14.60
2022-10-24T21:36:17.140Z,14.60
2022-10-24T21:38:48.958Z,14.60
2022-10-24T21:41:16.405Z,14.50
2022-10-24T21:43:44.067Z,14.50
2022-10-24T21:46:14.168Z,14.50
2022-10-24T21:48:42.516Z,14.50
2022-10-24T21:51:18.170Z,14.50
2022-10-24T21:53:47.400Z,14.50
2022-10-24T21:56:20.209Z,14.50
2022-10-24T21:58:48.898Z,14.50
2022-10-24T22:01:18.799Z,14.40
2022-10-24T22:03:46.196Z,14.40
2022-10-24T22:06:15.463Z,14.40
2022-10-24T22:08:42.895Z,14.30
2022-10-24T22:11:12.751Z,14.30
2022-10-24T22:13:39.874Z,14.30
2022-10-24T22:16:08.143Z,14.20
2022-10-24T22:18:35.722Z,14.20
2022-10-24T22:21:03.757Z,14.20
2022-10-24T22:23:30.976Z,14.20
2022-10-24T22:25:58.242Z,14.10
2022-10-24T22:28:25.557Z,14.10
2022-10-24T22:30:52.731Z,14.00
2022-10-24T22:33:22.340Z,14.00
2022-10-24T22:35:57.313Z,14.00
2022-10-24T22:38:24.304Z,13.90
2022-10-24T22:43:19.473Z,13.90
2022-10-24T22:46:28.250Z,13.80
2022-10-24T22:49:01.974Z,13.80
2022-10-24T22:51:29.240Z,13.80
2022-10-24T22:53:56.326Z,13.80
2022-10-24T22:56:33.399Z,13.80
2022-10-24T22:59:01.430Z,13.70
2022-10-24T23:01:46.630Z,13.70
2022-10-24T23:04:19.645Z,13.70
2022-10-24T23:07:08.176Z,13.70
2022-10-24T23:09:35.023Z,13.60
2022-10-24T23:12:02.079Z,13.60
2022-10-24T23:14:29.124Z,13.60
2022-10-24T23:16:58.925Z,13.60
2022-10-24T23:19:28.987Z,13.60
2022-10-24T23:22:25.958Z,13.50
2022-10-24T23:25:00.766Z,13.50
2022-10-24T23:27:30.285Z,13.50
2022-10-24T23:29:57.506Z,13.50
2022-10-24T23:32:30.434Z,13.40
2022-10-24T23:34:58.690Z,13.40
2022-10-24T23:37:34.471Z,13.40
2022-10-24T23:40:17.840Z,13.40
2022-10-24T23:42:45.785Z,13.40
2022-10-24T23:45:18.491Z,13.30
2022-10-24T23:48:26.806Z,13.30
2022-10-24T23:50:59.944Z,13.30
2022-10-24T23:53:52.420Z,13.30
2022-10-24T23:56:21.618Z,13.20
2022-10-24T23:58:49.049Z,13.20
